sensor_id;sensor_type;location;lat;lon;timestamp;P1;durP1;ratioP1;P2;durP2;ratioP2
40150;SDS011;25866;52.420;10.640;2022-12-07T00:00:18;20.47;;;13.60;;
40150;SDS011;25866;52.420;10.640;2022-12-07T00:02:45;20.97;;;13.53;;
40150;SDS011;25866;52.420;10.640;2022-12-07T00:05:10;20.53;;;13.83;;
40150;SDS011;25866;52.420;10.640;2022-12-07T00:07:36;19.97;;;13.63;;
40150;SDS011;25866;52.420;10.640;2022-12-07T00:10:02;20.97;;;13.53;;
40150;SDS011;25866;52.420;10.640;2022-12-07T00:12:28;19.93;;;13.43;;
40150;SDS011;25866;52.420;10.640;2022-12-07T00:14:53;20.17;;;13.47;;
40150;SDS011;25866;52.420;10.640;2022-12-07T00:17:19;21.70;;;13.60;;
40150;SDS011;25866;52.420;10.640;2022-12-07T00:19:45;20.60;;;14.07;;
40150;SDS011;25866;52.420;10.640;2022-12-07T00:22:11;22.67;;;14.17;;
40150;SDS011;25866;52.420;10.640;2022-12-07T00:24:37;21.53;;;14.27;;
40150;SDS011;25866;52.420;10.640;2022-12-07T00:27:03;21.80;;;14.47;;
40150;SDS011;25866;52.420;10.640;2022-12-07T00:29:28;21.23;;;14.13;;
40150;SDS011;25866;52.420;10.640;2022-12-07T00:31:54;24.60;;;13.83;;
40150;SDS011;25866;52.420;10.640;2022-12-07T00:34:21;23.60;;;13.93;;
40150;SDS011;25866;52.420;10.640;2022-12-07T00:36:47;22.47;;;15.07;;
40150;SDS011;25866;52.420;10.640;2022-12-07T00:39:14;22.23;;;15.00;;
40150;SDS011;25866;52.420;10.640;2022-12-07T00:41:40;22.27;;;13.77;;
40150;SDS011;25866;52.420;10.640;2022-12-07T00:44:06;25.67;;;14.27;;
40150;SDS011;25866;52.420;10.640;2022-12-07T00:46:31;23.47;;;14.73;;
40150;SDS011;25866;52.420;10.640;2022-12-07T00:48:57;29.83;;;15.40;;
40150;SDS011;25866;52.420;10.640;2022-12-07T00:51:23;25.97;;;15.63;;
40150;SDS011;25866;52.420;10.640;2022-12-07T00:53:52;23.93;;;15.07;;
40150;SDS011;25866;52.420;10.640;2022-12-07T00:56:19;25.83;;;14.93;;
40150;SDS011;25866;52.420;10.640;2022-12-07T00:58:50;29.30;;;15.60;;
40150;SDS011;25866;52.420;10.640;2022-12-07T01:01:21;27.90;;;16.10;;
40150;SDS011;25866;52.420;10.640;2022-12-07T01:03:47;27.27;;;17.13;;
40150;SDS011;25866;52.420;10.640;2022-12-07T01:06:14;29.13;;;16.50;;
40150;SDS011;25866;52.420;10.640;2022-12-07T01:08:41;27.37;;;16.13;;
40150;SDS011;25866;52.420;10.640;2022-12-07T01:11:07;27.27;;;16.07;;
40150;SDS011;25866;52.420;10.640;2022-12-07T01:13:37;31.50;;;17.33;;
40150;SDS011;25866;52.420;10.640;2022-12-07T01:16:04;30.87;;;17.23;;
40150;SDS011;25866;52.420;10.640;2022-12-07T01:18:31;31.07;;;17.47;;
40150;SDS011;25866;52.420;10.640;2022-12-07T01:21:03;30.87;;;17.97;;
40150;SDS011;25866;52.420;10.640;2022-12-07T01:23:40;38.30;;;18.63;;
40150;SDS011;25866;52.420;10.640;2022-12-07T01:26:07;32.20;;;18.10;;
40150;SDS011;25866;52.420;10.640;2022-12-07T01:28:36;35.87;;;18.03;;
40150;SDS011;25866;52.420;10.640;2022-12-07T01:31:03;31.30;;;17.17;;
40150;SDS011;25866;52.420;10.640;2022-12-07T01:33:35;35.77;;;19.10;;
40150;SDS011;25866;52.420;10.640;2022-12-07T01:38:42;29.67;;;17.07;;
40150;SDS011;25866;52.420;10.640;2022-12-07T01:41:09;35.07;;;18.27;;
40150;SDS011;25866;52.420;10.640;2022-12-07T01:43:36;35.47;;;17.87;;
40150;SDS011;25866;52.420;10.640;2022-12-07T01:46:04;33.80;;;18.33;;
40150;SDS011;25866;52.420;10.640;2022-12-07T01:48:34;36.97;;;17.80;;
40150;SDS011;25866;52.420;10.640;2022-12-07T01:51:05;37.93;;;18.77;;
40150;SDS011;25866;52.420;10.640;2022-12-07T01:53:37;38.40;;;19.80;;
40150;SDS011;25866;52.420;10.640;2022-12-07T01:56:06;30.50;;;18.33;;
40150;SDS011;25866;52.420;10.640;2022-12-07T01:58:34;38.20;;;18.57;;
40150;SDS011;25866;52.420;10.640;2022-12-07T02:01:02;42.47;;;20.17;;
40150;SDS011;25866;52.420;10.640;2022-12-07T02:03:38;34.60;;;19.43;;
40150;SDS011;25866;52.420;10.640;2022-12-07T02:06:05;40.20;;;20.23;;
40150;SDS011;25866;52.420;10.640;2022-12-07T02:08:32;41.47;;;19.83;;
40150;SDS011;25866;52.420;10.640;2022-12-07T02:10:59;35.93;;;19.30;;
40150;SDS011;25866;52.420;10.640;2022-12-07T02:13:28;40.40;;;20.40;;
40150;SDS011;25866;52.420;10.640;2022-12-07T02:30:00;40.50;;;20.87;;
40150;SDS011;25866;52.420;10.640;2022-12-07T02:35:24;41.67;;;22.13;;
40150;SDS011;25866;52.420;10.640;2022-12-07T02:37:58;41.93;;;22.47;;
40150;SDS011;25866;52.420;10.640;2022-12-07T02:43:48;41.17;;;21.60;;
40150;SDS011;25866;52.420;10.640;2022-12-07T02:46:20;41.00;;;21.60;;
40150;SDS011;25866;52.420;10.640;2022-12-07T02:48:58;39.87;;;21.37;;
40150;SDS011;25866;52.420;10.640;2022-12-07T02:51:26;41.67;;;21.37;;
40150;SDS011;25866;52.420;10.640;2022-12-07T02:54:00;36.53;;;19.73;;
40150;SDS011;25866;52.420;10.640;2022-12-07T03:10:56;33.23;;;18.73;;
40150;SDS011;25866;52.420;10.640;2022-12-07T03:13:34;33.47;;;17.33;;
40150;SDS011;25866;52.420;10.640;2022-12-07T03:18:55;30.20;;;17.27;;
40150;SDS011;25866;52.420;10.640;2022-12-07T03:21:24;33.77;;;17.07;;
40150;SDS011;25866;52.420;10.640;2022-12-07T03:24:05;34.83;;;17.17;;
40150;SDS011;25866;52.420;10.640;2022-12-07T03:26:38;30.30;;;17.13;;
40150;SDS011;25866;52.420;10.640;2022-12-07T03:29:19;27.60;;;15.67;;
40150;SDS011;25866;52.420;10.640;2022-12-07T03:31:58;24.57;;;15.53;;
40150;SDS011;25866;52.420;10.640;2022-12-07T03:37:03;23.97;;;14.63;;
40150;SDS011;25866;52.420;10.640;2022-12-07T03:39:39;28.30;;;15.60;;
40150;SDS011;25866;52.420;10.640;2022-12-07T03:42:14;19.27;;;13.40;;
40150;SDS011;25866;52.420;10.640;2022-12-07T03:44:40;24.50;;;14.13;;
40150;SDS011;25866;52.420;10.640;2022-12-07T03:47:16;26.37;;;14.37;;
40150;SDS011;25866;52.420;10.640;2022-12-07T03:50:02;24.87;;;13.97;;
40150;SDS011;25866;52.420;10.640;2022-12-07T03:55:47;23.80;;;13.80;;
40150;SDS011;25866;52.420;10.640;2022-12-07T03:58:15;23.63;;;12.93;;
40150;SDS011;25866;52.420;10.640;2022-12-07T04:00:44;22.70;;;12.40;;
40150;SDS011;25866;52.420;10.640;2022-12-07T04:03:10;18.23;;;11.20;;
40150;SDS011;25866;52.420;10.640;2022-12-07T04:05:37;18.60;;;11.10;;
40150;SDS011;25866;52.420;10.640;2022-12-07T04:08:03;18.13;;;10.60;;
40150;SDS011;25866;52.420;10.640;2022-12-07T04:10:29;20.80;;;11.17;;
40150;SDS011;25866;52.420;10.640;2022-12-07T04:12:55;16.37;;;9.90;;
40150;SDS011;25866;52.420;10.640;2022-12-07T04:15:21;18.30;;;9.80;;
40150;SDS011;25866;52.420;10.640;2022-12-07T04:17:47;16.10;;;9.57;;
40150;SDS011;25866;52.420;10.640;2022-12-07T04:20:13;14.77;;;9.53;;
40150;SDS011;25866;52.420;10.640;2022-12-07T04:22:38;14.33;;;9.20;;
40150;SDS011;25866;52.420;10.640;2022-12-07T04:25:04;16.37;;;9.90;;
40150;SDS011;25866;52.420;10.640;2022-12-07T04:27:31;17.33;;;9.30;;
40150;SDS011;25866;52.420;10.640;2022-12-07T04:29:56;18.67;;;9.47;;
40150;SDS011;25866;52.420;10.640;2022-12-07T04:32:22;21.40;;;9.00;;
40150;SDS011;25866;52.420;10.640;2022-12-07T04:34:49;16.43;;;8.33;;
40150;SDS011;25866;52.420;10.640;2022-12-07T04:37:15;18.77;;;9.57;;
40150;SDS011;25866;52.420;10.640;2022-12-07T04:39:42;15.83;;;8.77;;
40150;SDS011;25866;52.420;10.640;2022-12-07T04:42:09;15.43;;;8.60;;
40150;SDS011;25866;52.420;10.640;2022-12-07T04:44:36;14.50;;;8.80;;
40150;SDS011;25866;52.420;10.640;2022-12-07T04:47:01;18.27;;;8.90;;
40150;SDS011;25866;52.420;10.640;2022-12-07T04:49:27;12.60;;;8.50;;
40150;SDS011;25866;52.420;10.640;2022-12-07T04:51:53;13.67;;;8.03;;
40150;SDS011;25866;52.420;10.640;2022-12-07T04:54:19;13.03;;;7.87;;
40150;SDS011;25866;52.420;10.640;2022-12-07T04:56:45;15.37;;;8.43;;
40150;SDS011;25866;52.420;10.640;2022-12-07T04:59:11;13.50;;;7.50;;
40150;SDS011;25866;52.420;10.640;2022-12-07T05:01:38;14.90;;;8.37;;
40150;SDS011;25866;52.420;10.640;2022-12-07T05:04:05;13.43;;;7.93;;
40150;SDS011;25866;52.420;10.640;2022-12-07T05:06:31;13.03;;;7.70;;
40150;SDS011;25866;52.420;10.640;2022-12-07T05:08:57;12.47;;;7.90;;
40150;SDS011;25866;52.420;10.640;2022-12-07T05:11:23;14.83;;;8.03;;
40150;SDS011;25866;52.420;10.640;2022-12-07T05:14:21;14.23;;;8.07;;
40150;SDS011;25866;52.420;10.640;2022-12-07T05:16:49;12.20;;;7.80;;
40150;SDS011;25866;52.420;10.640;2022-12-07T05:19:16;11.13;;;7.67;;
40150;SDS011;25866;52.420;10.640;2022-12-07T05:21:42;15.23;;;7.47;;
40150;SDS011;25866;52.420;10.640;2022-12-07T05:24:09;12.60;;;6.97;;
40150;SDS011;25866;52.420;10.640;2022-12-07T05:26:36;9.93;;;6.67;;
40150;SDS011;25866;52.420;10.640;2022-12-07T05:29:02;14.00;;;6.73;;
40150;SDS011;25866;52.420;10.640;2022-12-07T05:31:28;12.17;;;6.63;;
40150;SDS011;25866;52.420;10.640;2022-12-07T05:33:54;8.80;;;6.47;;
40150;SDS011;25866;52.420;10.640;2022-12-07T05:36:20;12.73;;;6.93;;
40150;SDS011;25866;52.420;10.640;2022-12-07T05:38:46;12.57;;;7.20;;
40150;SDS011;25866;52.420;10.640;2022-12-07T05:41:15;13.07;;;6.87;;
40150;SDS011;25866;52.420;10.640;2022-12-07T05:44:01;12.47;;;6.87;;
40150;SDS011;25866;52.420;10.640;2022-12-07T05:46:27;14.40;;;7.40;;
40150;SDS011;25866;52.420;10.640;2022-12-07T05:48:53;16.23;;;7.13;;
40150;SDS011;25866;52.420;10.640;2022-12-07T05:51:19;11.77;;;7.30;;
40150;SDS011;25866;52.420;10.640;2022-12-07T05:53:45;15.60;;;6.70;;
40150;SDS011;25866;52.420;10.640;2022-12-07T05:56:13;12.17;;;7.37;;
40150;SDS011;25866;52.420;10.640;2022-12-07T05:58:39;11.00;;;6.60;;
40150;SDS011;25866;52.420;10.640;2022-12-07T06:01:23;10.53;;;6.73;;
40150;SDS011;25866;52.420;10.640;2022-12-07T06:03:49;9.97;;;6.67;;
40150;SDS011;25866;52.420;10.640;2022-12-07T06:06:16;13.63;;;6.87;;
40150;SDS011;25866;52.420;10.640;2022-12-07T06:08:41;13.83;;;6.70;;
40150;SDS011;25866;52.420;10.640;2022-12-07T06:11:07;12.47;;;6.10;;
40150;SDS011;25866;52.420;10.640;2022-12-07T06:13:51;11.97;;;6.70;;
40150;SDS011;25866;52.420;10.640;2022-12-07T06:16:17;12.80;;;6.43;;
40150;SDS011;25866;52.420;10.640;2022-12-07T06:18:42;10.90;;;6.60;;
40150;SDS011;25866;52.420;10.640;2022-12-07T06:21:08;11.57;;;6.90;;
40150;SDS011;25866;52.420;10.640;2022-12-07T06:23:34;11.10;;;7.20;;
40150;SDS011;25866;52.420;10.640;2022-12-07T06:25:59;14.97;;;6.90;;
40150;SDS011;25866;52.420;10.640;2022-12-07T06:28:25;10.20;;;6.80;;
40150;SDS011;25866;52.420;10.640;2022-12-07T06:31:00;12.17;;;7.17;;
40150;SDS011;25866;52.420;10.640;2022-12-07T06:33:27;11.77;;;6.40;;
40150;SDS011;25866;52.420;10.640;2022-12-07T06:35:55;13.70;;;6.87;;
40150;SDS011;25866;52.420;10.640;2022-12-07T06:38:21;12.67;;;6.50;;
40150;SDS011;25866;52.420;10.640;2022-12-07T06:40:47;9.23;;;6.57;;
40150;SDS011;25866;52.420;10.640;2022-12-07T06:43:13;12.80;;;6.87;;
40150;SDS011;25866;52.420;10.640;2022-12-07T06:45:40;12.63;;;6.70;;
40150;SDS011;25866;52.420;10.640;2022-12-07T06:48:06;9.37;;;6.23;;
40150;SDS011;25866;52.420;10.640;2022-12-07T06:50:32;11.27;;;6.73;;
40150;SDS011;25866;52.420;10.640;2022-12-07T06:52:58;11.70;;;6.33;;
40150;SDS011;25866;52.420;10.640;2022-12-07T06:55:23;10.43;;;6.57;;
40150;SDS011;25866;52.420;10.640;2022-12-07T06:57:53;9.27;;;6.90;;
40150;SDS011;25866;52.420;10.640;2022-12-07T07:00:19;9.17;;;5.30;;
40150;SDS011;25866;52.420;10.640;2022-12-07T07:02:45;9.57;;;5.43;;
40150;SDS011;25866;52.420;10.640;2022-12-07T07:05:10;7.23;;;4.90;;
40150;SDS011;25866;52.420;10.640;2022-12-07T07:07:37;8.03;;;4.70;;
40150;SDS011;25866;52.420;10.640;2022-12-07T07:10:03;6.63;;;4.50;;
40150;SDS011;25866;52.420;10.640;2022-12-07T07:12:29;8.33;;;4.93;;
40150;SDS011;25866;52.420;10.640;2022-12-07T07:14:55;8.30;;;5.07;;
40150;SDS011;25866;52.420;10.640;2022-12-07T07:17:21;5.07;;;3.97;;
40150;SDS011;25866;52.420;10.640;2022-12-07T07:19:47;5.23;;;3.83;;
40150;SDS011;25866;52.420;10.640;2022-12-07T07:22:12;6.30;;;4.00;;
40150;SDS011;25866;52.420;10.640;2022-12-07T07:24:38;8.93;;;4.23;;
40150;SDS011;25866;52.420;10.640;2022-12-07T07:27:04;6.00;;;4.20;;
40150;SDS011;25866;52.420;10.640;2022-12-07T07:29:29;6.97;;;4.40;;
40150;SDS011;25866;52.420;10.640;2022-12-07T07:31:55;5.57;;;4.03;;
40150;SDS011;25866;52.420;10.640;2022-12-07T07:34:21;8.37;;;4.73;;
40150;SDS011;25866;52.420;10.640;2022-12-07T07:36:47;7.40;;;4.10;;
40150;SDS011;25866;52.420;10.640;2022-12-07T07:39:12;9.20;;;5.07;;
40150;SDS011;25866;52.420;10.640;2022-12-07T07:41:38;7.73;;;4.60;;
40150;SDS011;25866;52.420;10.640;2022-12-07T07:44:04;7.63;;;4.47;;
40150;SDS011;25866;52.420;10.640;2022-12-07T07:46:30;8.77;;;4.87;;
40150;SDS011;25866;52.420;10.640;2022-12-07T07:48:58;8.17;;;4.63;;
40150;SDS011;25866;52.420;10.640;2022-12-07T07:51:23;9.27;;;4.23;;
40150;SDS011;25866;52.420;10.640;2022-12-07T07:53:49;7.73;;;4.93;;
40150;SDS011;25866;52.420;10.640;2022-12-07T07:56:16;6.27;;;4.57;;
40150;SDS011;25866;52.420;10.640;2022-12-07T07:58:41;8.67;;;5.27;;
40150;SDS011;25866;52.420;10.640;2022-12-07T08:01:07;9.13;;;5.50;;
40150;SDS011;25866;52.420;10.640;2022-12-07T08:03:33;6.40;;;4.80;;
40150;SDS011;25866;52.420;10.640;2022-12-07T08:05:59;5.40;;;4.57;;
40150;SDS011;25866;52.420;10.640;2022-12-07T08:08:28;9.30;;;5.23;;
40150;SDS011;25866;52.420;10.640;2022-12-07T08:10:54;7.57;;;5.13;;
40150;SDS011;25866;52.420;10.640;2022-12-07T08:13:20;8.37;;;5.20;;
40150;SDS011;25866;52.420;10.640;2022-12-07T08:15:47;10.20;;;6.23;;
40150;SDS011;25866;52.420;10.640;2022-12-07T08:18:14;9.13;;;5.90;;
40150;SDS011;25866;52.420;10.640;2022-12-07T08:20:40;11.50;;;5.87;;
40150;SDS011;25866;52.420;10.640;2022-12-07T08:23:07;10.50;;;5.83;;
40150;SDS011;25866;52.420;10.640;2022-12-07T08:25:33;9.93;;;5.73;;
40150;SDS011;25866;52.420;10.640;2022-12-07T08:27:59;10.50;;;5.63;;
40150;SDS011;25866;52.420;10.640;2022-12-07T08:30:25;10.03;;;5.33;;
40150;SDS011;25866;52.420;10.640;2022-12-07T08:32:52;11.23;;;5.33;;
40150;SDS011;25866;52.420;10.640;2022-12-07T08:35:18;9.07;;;5.10;;
40150;SDS011;25866;52.420;10.640;2022-12-07T08:37:46;7.50;;;4.90;;
40150;SDS011;25866;52.420;10.640;2022-12-07T08:40:13;8.43;;;4.70;;
40150;SDS011;25866;52.420;10.640;2022-12-07T08:42:44;9.93;;;4.93;;
40150;SDS011;25866;52.420;10.640;2022-12-07T08:45:14;7.50;;;4.53;;
40150;SDS011;25866;52.420;10.640;2022-12-07T08:47:42;8.57;;;4.83;;
40150;SDS011;25866;52.420;10.640;2022-12-07T08:50:16;8.33;;;4.90;;
40150;SDS011;25866;52.420;10.640;2022-12-07T08:52:42;8.47;;;4.87;;
40150;SDS011;25866;52.420;10.640;2022-12-07T08:55:09;5.70;;;4.33;;
40150;SDS011;25866;52.420;10.640;2022-12-07T08:57:39;7.50;;;4.20;;
40150;SDS011;25866;52.420;10.640;2022-12-07T09:00:05;10.73;;;4.70;;
40150;SDS011;25866;52.420;10.640;2022-12-07T09:02:32;8.53;;;4.60;;
40150;SDS011;25866;52.420;10.640;2022-12-07T09:04:58;7.57;;;4.40;;
40150;SDS011;25866;52.420;10.640;2022-12-07T09:07:25;12.20;;;4.67;;
40150;SDS011;25866;52.420;10.640;2022-12-07T09:09:52;6.47;;;4.20;;
40150;SDS011;25866;52.420;10.640;2022-12-07T09:12:17;10.77;;;4.83;;
40150;SDS011;25866;52.420;10.640;2022-12-07T09:14:43;8.60;;;4.57;;
40150;SDS011;25866;52.420;10.640;2022-12-07T09:17:10;6.70;;;4.10;;
40150;SDS011;25866;52.420;10.640;2022-12-07T09:19:46;6.90;;;4.07;;
40150;SDS011;25866;52.420;10.640;2022-12-07T09:22:13;7.60;;;4.50;;
40150;SDS011;25866;52.420;10.640;2022-12-07T09:24:38;8.37;;;4.47;;
40150;SDS011;25866;52.420;10.640;2022-12-07T09:27:07;6.87;;;4.27;;
40150;SDS011;25866;52.420;10.640;2022-12-07T09:29:33;7.87;;;4.00;;
40150;SDS011;25866;52.420;10.640;2022-12-07T09:31:58;9.13;;;4.00;;
40150;SDS011;25866;52.420;10.640;2022-12-07T09:34:24;11.87;;;4.57;;
40150;SDS011;25866;52.420;10.640;2022-12-07T09:36:51;9.80;;;4.23;;
40150;SDS011;25866;52.420;10.640;2022-12-07T09:39:17;9.60;;;4.00;;
40150;SDS011;25866;52.420;10.640;2022-12-07T09:41:43;6.27;;;3.73;;
40150;SDS011;25866;52.420;10.640;2022-12-07T09:44:12;8.77;;;2.97;;
40150;SDS011;25866;52.420;10.640;2022-12-07T09:46:42;7.27;;;2.93;;
40150;SDS011;25866;52.420;10.640;2022-12-07T09:49:14;6.87;;;2.97;;
40150;SDS011;25866;52.420;10.640;2022-12-07T09:51:44;5.97;;;2.90;;
40150;SDS011;25866;52.420;10.640;2022-12-07T09:54:14;3.53;;;2.63;;
40150;SDS011;25866;52.420;10.640;2022-12-07T09:56:41;8.07;;;2.60;;
40150;SDS011;25866;52.420;10.640;2022-12-07T09:59:18;5.53;;;3.00;;
40150;SDS011;25866;52.420;10.640;2022-12-07T10:01:45;7.40;;;2.97;;
40150;SDS011;25866;52.420;10.640;2022-12-07T10:06:49;5.93;;;3.23;;
40150;SDS011;25866;52.420;10.640;2022-12-07T10:09:18;7.10;;;2.90;;
40150;SDS011;25866;52.420;10.640;2022-12-07T10:12:05;6.67;;;3.40;;
40150;SDS011;25866;52.420;10.640;2022-12-07T10:14:35;6.80;;;3.40;;
40150;SDS011;25866;52.420;10.640;2022-12-07T10:23:01;9.10;;;3.33;;
40150;SDS011;25866;52.420;10.640;2022-12-07T10:25:33;5.57;;;2.90;;
40150;SDS011;25866;52.420;10.640;2022-12-07T10:30:50;5.33;;;2.97;;
40150;SDS011;25866;52.420;10.640;2022-12-07T10:33:32;6.37;;;3.33;;
40150;SDS011;25866;52.420;10.640;2022-12-07T10:36:01;9.47;;;2.90;;
40150;SDS011;25866;52.420;10.640;2022-12-07T10:38:59;7.80;;;3.00;;
40150;SDS011;25866;52.420;10.640;2022-12-07T10:41:52;9.20;;;3.50;;
40150;SDS011;25866;52.420;10.640;2022-12-07T10:44:24;7.73;;;3.07;;
40150;SDS011;25866;52.420;10.640;2022-12-07T10:50:06;6.00;;;2.10;;
40150;SDS011;25866;52.420;10.640;2022-12-07T10:52:58;4.37;;;1.97;;
40150;SDS011;25866;52.420;10.640;2022-12-07T11:12:02;6.60;;;2.10;;
40150;SDS011;25866;52.420;10.640;2022-12-07T11:25:32;3.70;;;1.80;;
40150;SDS011;25866;52.420;10.640;2022-12-07T11:33:29;1.57;;;1.30;;
40150;SDS011;25866;52.420;10.640;2022-12-07T11:36:01;3.77;;;1.10;;
40150;SDS011;25866;52.420;10.640;2022-12-07T11:39:00;8.90;;;1.80;;
40150;SDS011;25866;52.420;10.640;2022-12-07T11:41:30;3.20;;;1.10;;
40150;SDS011;25866;52.420;10.640;2022-12-07T11:44:16;3.97;;;1.43;;
40150;SDS011;25866;52.420;10.640;2022-12-07T11:46:55;4.17;;;1.20;;
40150;SDS011;25866;52.420;10.640;2022-12-07T11:49:51;2.53;;;1.37;;
40150;SDS011;25866;52.420;10.640;2022-12-07T11:55:00;5.00;;;1.63;;
40150;SDS011;25866;52.420;10.640;2022-12-07T11:57:37;8.53;;;1.40;;
40150;SDS011;25866;52.420;10.640;2022-12-07T12:05:37;6.33;;;2.10;;
40150;SDS011;25866;52.420;10.640;2022-12-07T12:08:15;3.53;;;1.70;;
40150;SDS011;25866;52.420;10.640;2022-12-07T12:19:35;4.23;;;1.83;;
40150;SDS011;25866;52.420;10.640;2022-12-07T12:22:12;7.27;;;1.63;;
40150;SDS011;25866;52.420;10.640;2022-12-07T12:24:43;3.43;;;1.33;;
40150;SDS011;25866;52.420;10.640;2022-12-07T12:27:30;1.00;;;0.70;;
40150;SDS011;25866;52.420;10.640;2022-12-07T12:30:29;1.87;;;1.17;;
40150;SDS011;25866;52.420;10.640;2022-12-07T12:33:27;3.33;;;1.07;;
40150;SDS011;25866;52.420;10.640;2022-12-07T12:46:51;2.23;;;1.23;;
40150;SDS011;25866;52.420;10.640;2022-12-07T12:52:27;3.17;;;1.27;;
40150;SDS011;25866;52.420;10.640;2022-12-07T12:55:11;4.53;;;1.40;;
40150;SDS011;25866;52.420;10.640;2022-12-07T12:57:39;4.23;;;1.20;;
40150;SDS011;25866;52.420;10.640;2022-12-07T13:00:21;3.03;;;1.20;;
40150;SDS011;25866;52.420;10.640;2022-12-07T13:02:50;3.63;;;1.60;;
40150;SDS011;25866;52.420;10.640;2022-12-07T13:07:51;8.00;;;1.50;;
40150;SDS011;25866;52.420;10.640;2022-12-07T13:23:36;3.03;;;1.07;;
40150;SDS011;25866;52.420;10.640;2022-12-07T13:37:01;7.00;;;2.60;;
40150;SDS011;25866;52.420;10.640;2022-12-07T13:39:59;2.23;;;0.90;;
40150;SDS011;25866;52.420;10.640;2022-12-07T13:42:41;5.10;;;1.23;;
40150;SDS011;25866;52.420;10.640;2022-12-07T13:45:25;3.67;;;1.43;;
40150;SDS011;25866;52.420;10.640;2022-12-07T13:48:15;6.30;;;1.80;;
40150;SDS011;25866;52.420;10.640;2022-12-07T13:53:46;3.07;;;1.80;;
40150;SDS011;25866;52.420;10.640;2022-12-07T13:56:12;4.90;;;1.67;;
40150;SDS011;25866;52.420;10.640;2022-12-07T13:58:40;2.00;;;1.37;;
40150;SDS011;25866;52.420;10.640;2022-12-07T14:01:06;4.90;;;1.33;;
40150;SDS011;25866;52.420;10.640;2022-12-07T14:03:33;4.57;;;1.43;;
40150;SDS011;25866;52.420;10.640;2022-12-07T14:06:13;3.87;;;1.47;;
40150;SDS011;25866;52.420;10.640;2022-12-07T14:09:06;4.20;;;1.20;;
40150;SDS011;25866;52.420;10.640;2022-12-07T14:11:47;3.47;;;1.33;;
40150;SDS011;25866;52.420;10.640;2022-12-07T14:14:20;4.33;;;1.73;;
40150;SDS011;25866;52.420;10.640;2022-12-07T14:19:42;4.70;;;1.17;;
40150;SDS011;25866;52.420;10.640;2022-12-07T14:24:50;8.43;;;1.63;;
40150;SDS011;25866;52.420;10.640;2022-12-07T14:27:24;3.50;;;1.10;;
40150;SDS011;25866;52.420;10.640;2022-12-07T14:29:58;5.30;;;1.30;;
40150;SDS011;25866;52.420;10.640;2022-12-07T14:32:27;7.83;;;1.77;;
40150;SDS011;25866;52.420;10.640;2022-12-07T14:37:29;3.57;;;0.90;;
40150;SDS011;25866;52.420;10.640;2022-12-07T14:39:55;4.07;;;1.30;;
40150;SDS011;25866;52.420;10.640;2022-12-07T14:42:22;1.83;;;0.80;;
40150;SDS011;25866;52.420;10.640;2022-12-07T14:44:52;2.13;;;0.47;;
40150;SDS011;25866;52.420;10.640;2022-12-07T14:47:18;2.23;;;0.60;;
40150;SDS011;25866;52.420;10.640;2022-12-07T14:49:43;1.00;;;0.53;;
40150;SDS011;25866;52.420;10.640;2022-12-07T14:52:12;4.27;;;0.90;;
40150;SDS011;25866;52.420;10.640;2022-12-07T14:54:41;2.40;;;0.80;;
40150;SDS011;25866;52.420;10.640;2022-12-07T14:57:08;1.27;;;0.53;;
40150;SDS011;25866;52.420;10.640;2022-12-07T14:59:35;4.10;;;0.60;;
40150;SDS011;25866;52.420;10.640;2022-12-07T15:02:03;2.20;;;0.80;;
40150;SDS011;25866;52.420;10.640;2022-12-07T15:04:29;7.63;;;1.30;;
40150;SDS011;25866;52.420;10.640;2022-12-07T15:07:03;1.93;;;1.33;;
40150;SDS011;25866;52.420;10.640;2022-12-07T15:09:29;4.87;;;1.40;;
40150;SDS011;25866;52.420;10.640;2022-12-07T15:11:55;3.67;;;1.40;;
40150;SDS011;25866;52.420;10.640;2022-12-07T15:14:21;6.13;;;3.10;;
40150;SDS011;25866;52.420;10.640;2022-12-07T15:16:47;3.47;;;1.93;;
40150;SDS011;25866;52.420;10.640;2022-12-07T15:19:17;4.33;;;1.93;;
40150;SDS011;25866;52.420;10.640;2022-12-07T15:24:37;3.73;;;2.10;;
40150;SDS011;25866;52.420;10.640;2022-12-07T15:27:03;4.53;;;2.00;;
40150;SDS011;25866;52.420;10.640;2022-12-07T15:29:29;4.70;;;1.97;;
40150;SDS011;25866;52.420;10.640;2022-12-07T15:31:55;6.73;;;2.60;;
40150;SDS011;25866;52.420;10.640;2022-12-07T15:34:21;8.27;;;4.10;;
40150;SDS011;25866;52.420;10.640;2022-12-07T15:36:48;16.73;;;7.80;;
40150;SDS011;25866;52.420;10.640;2022-12-07T15:39:14;30.53;;;13.03;;
40150;SDS011;25866;52.420;10.640;2022-12-07T15:41:39;18.00;;;7.50;;
40150;SDS011;25866;52.420;10.640;2022-12-07T15:44:05;7.03;;;3.63;;
40150;SDS011;25866;52.420;10.640;2022-12-07T15:46:50;7.30;;;3.67;;
40150;SDS011;25866;52.420;10.640;2022-12-07T15:49:17;5.50;;;2.70;;
40150;SDS011;25866;52.420;10.640;2022-12-07T15:51:45;6.67;;;2.80;;
40150;SDS011;25866;52.420;10.640;2022-12-07T15:54:13;7.53;;;2.97;;
40150;SDS011;25866;52.420;10.640;2022-12-07T15:56:48;7.67;;;2.80;;
40150;SDS011;25866;52.420;10.640;2022-12-07T15:59:14;6.83;;;2.27;;
40150;SDS011;25866;52.420;10.640;2022-12-07T16:01:46;3.23;;;1.67;;
40150;SDS011;25866;52.420;10.640;2022-12-07T16:04:12;6.27;;;1.90;;
40150;SDS011;25866;52.420;10.640;2022-12-07T16:06:38;4.03;;;1.60;;
40150;SDS011;25866;52.420;10.640;2022-12-07T16:09:04;2.10;;;1.70;;
40150;SDS011;25866;52.420;10.640;2022-12-07T16:11:31;7.13;;;1.80;;
40150;SDS011;25866;52.420;10.640;2022-12-07T16:13:57;2.83;;;1.60;;
40150;SDS011;25866;52.420;10.640;2022-12-07T16:16:23;4.50;;;2.10;;
40150;SDS011;25866;52.420;10.640;2022-12-07T16:18:50;5.03;;;2.23;;
40150;SDS011;25866;52.420;10.640;2022-12-07T16:21:17;3.27;;;2.13;;
40150;SDS011;25866;52.420;10.640;2022-12-07T16:23:43;3.43;;;2.07;;
40150;SDS011;25866;52.420;10.640;2022-12-07T16:26:14;3.23;;;2.00;;
40150;SDS011;25866;52.420;10.640;2022-12-07T16:28:42;4.17;;;2.10;;
40150;SDS011;25866;52.420;10.640;2022-12-07T16:31:10;4.37;;;2.10;;
40150;SDS011;25866;52.420;10.640;2022-12-07T16:33:39;5.10;;;1.97;;
40150;SDS011;25866;52.420;10.640;2022-12-07T16:36:06;5.33;;;1.90;;
40150;SDS011;25866;52.420;10.640;2022-12-07T16:38:33;5.47;;;2.20;;
40150;SDS011;25866;52.420;10.640;2022-12-07T16:41:00;2.97;;;1.60;;
40150;SDS011;25866;52.420;10.640;2022-12-07T16:43:26;7.33;;;1.90;;
40150;SDS011;25866;52.420;10.640;2022-12-07T16:45:52;3.23;;;2.00;;
40150;SDS011;25866;52.420;10.640;2022-12-07T16:48:18;4.33;;;1.60;;
40150;SDS011;25866;52.420;10.640;2022-12-07T16:50:44;3.23;;;1.90;;
40150;SDS011;25866;52.420;10.640;2022-12-07T16:53:13;1.97;;;1.33;;
40150;SDS011;25866;52.420;10.640;2022-12-07T16:55:41;3.70;;;1.53;;
40150;SDS011;25866;52.420;10.640;2022-12-07T16:58:09;2.23;;;1.17;;
40150;SDS011;25866;52.420;10.640;2022-12-07T17:00:39;2.20;;;1.30;;
40150;SDS011;25866;52.420;10.640;2022-12-07T17:03:06;1.50;;;0.90;;
40150;SDS011;25866;52.420;10.640;2022-12-07T17:05:33;3.37;;;1.10;;
40150;SDS011;25866;52.420;10.640;2022-12-07T17:08:02;5.57;;;2.20;;
40150;SDS011;25866;52.420;10.640;2022-12-07T17:10:28;5.13;;;1.67;;
40150;SDS011;25866;52.420;10.640;2022-12-07T17:12:55;5.07;;;2.63;;
40150;SDS011;25866;52.420;10.640;2022-12-07T17:15:21;8.57;;;2.80;;
40150;SDS011;25866;52.420;10.640;2022-12-07T17:17:51;7.70;;;3.20;;
40150;SDS011;25866;52.420;10.640;2022-12-07T17:20:25;8.90;;;3.07;;
40150;SDS011;25866;52.420;10.640;2022-12-07T17:22:58;4.93;;;2.47;;